sensor_id;sensor_type;location;lat;lon;timestamp;temperature;humidity
19928;DHT22;10126;50.876;4.470;2023-07-13T00:00:00;17.20;99.90
19928;DHT22;10126;50.876;4.470;2023-07-13T00:02:01;17.10;99.90
19928;DHT22;10126;50.876;4.470;2023-07-13T00:04:01;17.20;99.90
19928;DHT22;10126;50.876;4.470;2023-07-13T00:06:02;17.20;99.90
19928;DHT22;10126;50.876;4.470;2023-07-13T00:08:03;17.10;99.90
19928;DHT22;10126;50.876;4.470;2023-07-13T00:10:08;17.00;99.90
19928;DHT22;10126;50.876;4.470;2023-07-13T00:12:26;17.00;99.90
19928;DHT22;10126;50.876;4.470;2023-07-13T00:14:28;17.10;99.90
19928;DHT22;10126;50.876;4.470;2023-07-13T00:16:29;17.10;99.90
19928;DHT22;10126;50.876;4.470;2023-07-13T00:18:29;17.10;99.90
19928;DHT22;10126;50.876;4.470;2023-07-13T00:20:30;17.00;99.90
19928;DHT22;10126;50.876;4.470;2023-07-13T00:22:31;17.00;99.90
19928;DHT22;10126;50.876;4.470;2023-07-13T00:24:31;17.10;99.90
19928;DHT22;10126;50.876;4.470;2023-07-13T00:26:32;17.10;99.90
19928;DHT22;10126;50.876;4.470;2023-07-13T00:28:33;17.10;99.90
19928;DHT22;10126;50.876;4.470;2023-07-13T00:30:34;17.00;99.90
19928;DHT22;10126;50.876;4.470;2023-07-13T00:32:35;16.90;99.90
19928;DHT22;10126;50.876;4.470;2023-07-13T00:34:37;17.00;99.90
19928;DHT22;10126;50.876;4.470;2023-07-13T00:36:38;17.00;99.90
19928;DHT22;10126;50.876;4.470;2023-07-13T00:38:39;17.00;99.90
19928;DHT22;10126;50.876;4.470;2023-07-13T00:40:39;17.00;99.90
19928;DHT22;10126;50.876;4.470;2023-07-13T00:42:40;17.00;99.90
19928;DHT22;10126;50.876;4.470;2023-07-13T00:44:59;17.00;99.90
19928;DHT22;10126;50.876;4.470;2023-07-13T00:47:00;16.90;99.90
19928;DHT22;10126;50.876;4.470;2023-07-13T00:49:04;16.90;99.90
19928;DHT22;10126;50.876;4.470;2023-07-13T00:51:05;16.80;99.90
19928;DHT22;10126;50.876;4.470;2023-07-13T00:53:07;16.90;99.90
19928;DHT22;10126;50.876;4.470;2023-07-13T00:55:09;16.90;99.90
19928;DHT22;10126;50.876;4.470;2023-07-13T00:57:16;16.80;99.90
19928;DHT22;10126;50.876;4.470;2023-07-13T00:59:18;16.80;99.90
19928;DHT22;10126;50.876;4.470;2023-07-13T01:01:20;16.80;99.90
19928;DHT22;10126;50.876;4.470;2023-07-13T01:03:20;16.60;99.90
19928;DHT22;10126;50.876;4.470;2023-07-13T01:05:22;16.60;99.90
19928;DHT22;10126;50.876;4.470;2023-07-13T01:07:23;16.70;99.90
19928;DHT22;10126;50.876;4.470;2023-07-13T01:09:26;16.60;99.90
19928;DHT22;10126;50.876;4.470;2023-07-13T01:11:27;16.50;99.90
19928;DHT22;10126;50.876;4.470;2023-07-13T01:13:28;16.60;99.90
19928;DHT22;10126;50.876;4.470;2023-07-13T01:17:36;16.60;99.90
19928;DHT22;10126;50.876;4.470;2023-07-13T01:19:40;16.80;99.90
19928;DHT22;10126;50.876;4.470;2023-07-13T01:21:41;16.90;99.90
19928;DHT22;10126;50.876;4.470;2023-07-13T01:23:43;16.80;99.90
19928;DHT22;10126;50.876;4.470;2023-07-13T01:25:44;16.70;99.90
19928;DHT22;10126;50.876;4.470;2023-07-13T01:27:45;16.70;99.90
19928;DHT22;10126;50.876;4.470;2023-07-13T01:29:46;16.50;99.90
19928;DHT22;10126;50.876;4.470;2023-07-13T01:31:48;16.50;99.90
19928;DHT22;10126;50.876;4.470;2023-07-13T01:33:48;16.60;99.90
19928;DHT22;10126;50.876;4.470;2023-07-13T01:35:49;16.60;99.90
19928;DHT22;10126;50.876;4.470;2023-07-13T01:37:53;16.60;99.90
19928;DHT22;10126;50.876;4.470;2023-07-13T01:39:53;16.60;99.90
19928;DHT22;10126;50.876;4.470;2023-07-13T01:41:54;16.50;99.90
19928;DHT22;10126;50.876;4.470;2023-07-13T01:43:54;16.50;99.90
19928;DHT22;10126;50.876;4.470;2023-07-13T01:45:55;16.50;99.90
19928;DHT22;10126;50.876;4.470;2023-07-13T01:47:56;16.50;99.90
19928;DHT22;10126;50.876;4.470;2023-07-13T01:49:57;16.50;99.90
19928;DHT22;10126;50.876;4.470;2023-07-13T01:51:58;16.50;99.90
19928;DHT22;10126;50.876;4.470;2023-07-13T01:53:58;16.50;99.90
19928;DHT22;10126;50.876;4.470;2023-07-13T01:55:59;16.50;99.90
19928;DHT22;10126;50.876;4.470;2023-07-13T01:58:00;16.40;99.90
19928;DHT22;10126;50.876;4.470;2023-07-13T02:00:05;16.40;99.90
19928;DHT22;10126;50.876;4.470;2023-07-13T02:02:07;16.30;99.90
19928;DHT22;10126;50.876;4.470;2023-07-13T02:04:07;16.30;99.90
19928;DHT22;10126;50.876;4.470;2023-07-13T02:06:08;16.30;99.90
19928;DHT22;10126;50.876;4.470;2023-07-13T02:08:09;16.30;99.90
19928;DHT22;10126;50.876;4.470;2023-07-13T02:10:10;16.40;99.90
19928;DHT22;10126;50.876;4.470;2023-07-13T02:12:11;16.40;99.90
19928;DHT22;10126;50.876;4.470;2023-07-13T02:14:12;16.40;99.90
19928;DHT22;10126;50.876;4.470;2023-07-13T02:16:12;16.30;99.90
19928;DHT22;10126;50.876;4.470;2023-07-13T02:18:13;16.30;99.90
19928;DHT22;10126;50.876;4.470;2023-07-13T02:20:17;16.40;99.90
19928;DHT22;10126;50.876;4.470;2023-07-13T02:22:18;16.40;99.90
19928;DHT22;10126;50.876;4.470;2023-07-13T02:24:18;16.50;99.90
19928;DHT22;10126;50.876;4.470;2023-07-13T02:26:21;16.40;99.90
19928;DHT22;10126;50.876;4.470;2023-07-13T02:28:21;16.50;99.90
19928;DHT22;10126;50.876;4.470;2023-07-13T02:30:22;16.50;99.90
19928;DHT22;10126;50.876;4.470;2023-07-13T02:32:25;16.50;99.90
19928;DHT22;10126;50.876;4.470;2023-07-13T02:34:26;16.40;99.90
19928;DHT22;10126;50.876;4.470;2023-07-13T02:36:26;16.30;99.90
19928;DHT22;10126;50.876;4.470;2023-07-13T02:38:27;16.30;99.90
19928;DHT22;10126;50.876;4.470;2023-07-13T02:40:27;16.30;99.90
19928;DHT22;10126;50.876;4.470;2023-07-13T02:42:28;16.20;99.90
19928;DHT22;10126;50.876;4.470;2023-07-13T02:44:29;16.20;99.90
19928;DHT22;10126;50.876;4.470;2023-07-13T02:46:31;16.30;99.90
19928;DHT22;10126;50.876;4.470;2023-07-13T02:48:31;16.30;99.90
19928;DHT22;10126;50.876;4.470;2023-07-13T02:50:32;16.20;99.90
19928;DHT22;10126;50.876;4.470;2023-07-13T02:52:33;16.20;99.90
19928;DHT22;10126;50.876;4.470;2023-07-13T02:54:33;16.20;99.90
19928;DHT22;10126;50.876;4.470;2023-07-13T02:56:35;16.30;99.90
19928;DHT22;10126;50.876;4.470;2023-07-13T02:58:35;16.10;99.90
19928;DHT22;10126;50.876;4.470;2023-07-13T03:00:39;16.00;99.90
19928;DHT22;10126;50.876;4.470;2023-07-13T03:02:41;16.00;99.90
19928;DHT22;10126;50.876;4.470;2023-07-13T03:04:42;16.00;99.90
19928;DHT22;10126;50.876;4.470;2023-07-13T03:06:42;16.00;99.90
19928;DHT22;10126;50.876;4.470;2023-07-13T03:08:44;16.00;99.90
19928;DHT22;10126;50.876;4.470;2023-07-13T03:10:45;15.90;99.90
19928;DHT22;10126;50.876;4.470;2023-07-13T03:12:45;16.00;99.90
19928;DHT22;10126;50.876;4.470;2023-07-13T03:14:46;16.00;99.90
19928;DHT22;10126;50.876;4.470;2023-07-13T03:16:47;16.00;99.90
19928;DHT22;10126;50.876;4.470;2023-07-13T03:18:48;15.90;99.90
19928;DHT22;10126;50.876;4.470;2023-07-13T03:20:51;16.00;99.90
19928;DHT22;10126;50.876;4.470;2023-07-13T03:22:52;16.00;99.90
19928;DHT22;10126;50.876;4.470;2023-07-13T03:24:55;15.90;99.90
19928;DHT22;10126;50.876;4.470;2023-07-13T03:26:56;15.90;99.90
19928;DHT22;10126;50.876;4.470;2023-07-13T03:28:57;15.90;99.90
19928;DHT22;10126;50.876;4.470;2023-07-13T03:31:09;16.00;99.90
19928;DHT22;10126;50.876;4.470;2023-07-13T03:33:10;15.90;99.90
19928;DHT22;10126;50.876;4.470;2023-07-13T03:35:10;15.90;99.90
19928;DHT22;10126;50.876;4.470;2023-07-13T03:37:11;15.90;99.90
19928;DHT22;10126;50.876;4.470;2023-07-13T03:39:12;15.90;99.90
19928;DHT22;10126;50.876;4.470;2023-07-13T03:41:12;15.90;99.90
19928;DHT22;10126;50.876;4.470;2023-07-13T03:43:13;16.00;99.90
19928;DHT22;10126;50.876;4.470;2023-07-13T03:45:13;16.00;99.90
19928;DHT22;10126;50.876;4.470;2023-07-13T03:47:14;16.10;99.90
19928;DHT22;10126;50.876;4.470;2023-07-13T03:49:15;16.00;99.90
19928;DHT22;10126;50.876;4.470;2023-07-13T03:51:17;16.10;99.90
19928;DHT22;10126;50.876;4.470;2023-07-13T03:53:18;16.10;99.90
19928;DHT22;10126;50.876;4.470;2023-07-13T03:55:19;16.20;99.90
19928;DHT22;10126;50.876;4.470;2023-07-13T03:57:20;16.40;99.90
19928;DHT22;10126;50.876;4.470;2023-07-13T03:59:20;16.50;99.90
19928;DHT22;10126;50.876;4.470;2023-07-13T04:01:23;16.50;99.90
19928;DHT22;10126;50.876;4.470;2023-07-13T04:03:24;16.50;99.90
19928;DHT22;10126;50.876;4.470;2023-07-13T04:05:25;16.60;99.90
19928;DHT22;10126;50.876;4.470;2023-07-13T04:07:25;16.60;99.90
19928;DHT22;10126;50.876;4.470;2023-07-13T04:09:26;16.70;99.90
19928;DHT22;10126;50.876;4.470;2023-07-13T04:11:32;16.70;99.90
19928;DHT22;10126;50.876;4.470;2023-07-13T04:13:33;16.90;99.90
19928;DHT22;10126;50.876;4.470;2023-07-13T04:15:33;16.90;99.90
19928;DHT22;10126;50.876;4.470;2023-07-13T04:17:34;17.00;99.90
19928;DHT22;10126;50.876;4.470;2023-07-13T04:19:34;17.00;99.90
19928;DHT22;10126;50.876;4.470;2023-07-13T04:21:36;17.00;99.90
19928;DHT22;10126;50.876;4.470;2023-07-13T04:23:37;17.00;99.90
19928;DHT22;10126;50.876;4.470;2023-07-13T04:25:38;16.90;99.90
19928;DHT22;10126;50.876;4.470;2023-07-13T04:27:38;16.90;99.90
19928;DHT22;10126;50.876;4.470;2023-07-13T04:29:39;16.90;99.90
19928;DHT22;10126;50.876;4.470;2023-07-13T04:31:40;17.00;99.90
19928;DHT22;10126;50.876;4.470;2023-07-13T04:33:41;17.00;99.90
19928;DHT22;10126;50.876;4.470;2023-07-13T04:35:43;16.90;99.90
19928;DHT22;10126;50.876;4.470;2023-07-13T04:37:44;17.00;99.90
19928;DHT22;10126;50.876;4.470;2023-07-13T04:39:45;17.20;99.90
19928;DHT22;10126;50.876;4.470;2023-07-13T04:41:45;17.10;99.90
19928;DHT22;10126;50.876;4.470;2023-07-13T04:43:46;17.10;99.90
19928;DHT22;10126;50.876;4.470;2023-07-13T04:45:47;17.10;99.90
19928;DHT22;10126;50.876;4.470;2023-07-13T04:47:47;17.20;99.90
19928;DHT22;10126;50.876;4.470;2023-07-13T04:49:48;17.20;99.90
19928;DHT22;10126;50.876;4.470;2023-07-13T04:51:48;17.20;99.90
19928;DHT22;10126;50.876;4.470;2023-07-13T04:53:49;17.20;99.90
19928;DHT22;10126;50.876;4.470;2023-07-13T04:55:50;17.30;99.90
19928;DHT22;10126;50.876;4.470;2023-07-13T04:57:50;17.40;99.90
19928;DHT22;10126;50.876;4.470;2023-07-13T04:59:51;17.40;99.90
19928;DHT22;10126;50.876;4.470;2023-07-13T05:01:52;17.40;99.90
19928;DHT22;10126;50.876;4.470;2023-07-13T05:03:53;17.50;99.90
19928;DHT22;10126;50.876;4.470;2023-07-13T05:05:57;17.50;99.90
19928;DHT22;10126;50.876;4.470;2023-07-13T05:07:58;17.50;99.90
19928;DHT22;10126;50.876;4.470;2023-07-13T05:09:59;17.50;99.90
19928;DHT22;10126;50.876;4.470;2023-07-13T05:12:00;17.70;99.90
19928;DHT22;10126;50.876;4.470;2023-07-13T05:14:00;17.70;99.90
19928;DHT22;10126;50.876;4.470;2023-07-13T05:16:05;17.80;99.90
19928;DHT22;10126;50.876;4.470;2023-07-13T05:18:08;17.70;99.90
19928;DHT22;10126;50.876;4.470;2023-07-13T05:20:10;17.60;99.90
19928;DHT22;10126;50.876;4.470;2023-07-13T05:22:10;17.60;99.90
19928;DHT22;10126;50.876;4.470;2023-07-13T05:24:11;17.80;99.90
19928;DHT22;10126;50.876;4.470;2023-07-13T05:26:12;17.90;99.90
19928;DHT22;10126;50.876;4.470;2023-07-13T05:28:12;18.00;99.90
19928;DHT22;10126;50.876;4.470;2023-07-13T05:30:13;18.00;99.90
19928;DHT22;10126;50.876;4.470;2023-07-13T05:32:14;18.20;99.90
19928;DHT22;10126;50.876;4.470;2023-07-13T05:34:15;18.10;99.90
19928;DHT22;10126;50.876;4.470;2023-07-13T05:36:15;18.10;99.90
19928;DHT22;10126;50.876;4.470;2023-07-13T05:38:16;18.00;99.90
19928;DHT22;10126;50.876;4.470;2023-07-13T05:40:17;18.00;99.90
19928;DHT22;10126;50.876;4.470;2023-07-13T05:42:17;18.10;99.90
19928;DHT22;10126;50.876;4.470;2023-07-13T05:44:18;18.30;99.90
19928;DHT22;10126;50.876;4.470;2023-07-13T05:46:19;18.40;99.90
19928;DHT22;10126;50.876;4.470;2023-07-13T05:48:20;18.50;99.90
19928;DHT22;10126;50.876;4.470;2023-07-13T05:50:21;18.60;99.90
19928;DHT22;10126;50.876;4.470;2023-07-13T05:52:22;18.60;99.90
19928;DHT22;10126;50.876;4.470;2023-07-13T05:54:23;18.50;99.90
19928;DHT22;10126;50.876;4.470;2023-07-13T05:56:23;18.20;99.90
19928;DHT22;10126;50.876;4.470;2023-07-13T05:58:25;18.40;99.90
19928;DHT22;10126;50.876;4.470;2023-07-13T06:00:26;18.60;99.90
19928;DHT22;10126;50.876;4.470;2023-07-13T06:02:27;18.70;99.90
19928;DHT22;10126;50.876;4.470;2023-07-13T06:04:28;18.90;99.90
19928;DHT22;10126;50.876;4.470;2023-07-13T06:06:29;18.90;99.90
19928;DHT22;10126;50.876;4.470;2023-07-13T06:08:29;18.80;99.90
19928;DHT22;10126;50.876;4.470;2023-07-13T06:10:33;18.80;99.90
19928;DHT22;10126;50.876;4.470;2023-07-13T06:12:34;18.80;99.90
19928;DHT22;10126;50.876;4.470;2023-07-13T06:14:34;18.80;99.90
19928;DHT22;10126;50.876;4.470;2023-07-13T06:16:35;18.90;99.90
19928;DHT22;10126;50.876;4.470;2023-07-13T06:18:37;19.00;99.90
19928;DHT22;10126;50.876;4.470;2023-07-13T06:20:37;19.00;99.90
19928;DHT22;10126;50.876;4.470;2023-07-13T06:22:38;19.00;99.90
19928;DHT22;10126;50.876;4.470;2023-07-13T06:24:39;19.10;99.90
19928;DHT22;10126;50.876;4.470;2023-07-13T06:26:39;19.20;99.90
19928;DHT22;10126;50.876;4.470;2023-07-13T06:28:40;19.30;99.90
19928;DHT22;10126;50.876;4.470;2023-07-13T06:30:40;19.30;99.90
19928;DHT22;10126;50.876;4.470;2023-07-13T06:32:41;19.60;99.90
19928;DHT22;10126;50.876;4.470;2023-07-13T06:34:42;19.70;99.90
19928;DHT22;10126;50.876;4.470;2023-07-13T06:36:43;19.70;99.90
19928;DHT22;10126;50.876;4.470;2023-07-13T06:38:43;20.00;99.90
19928;DHT22;10126;50.876;4.470;2023-07-13T06:40:44;20.10;99.90
19928;DHT22;10126;50.876;4.470;2023-07-13T06:42:45;20.30;99.90
19928;DHT22;10126;50.876;4.470;2023-07-13T06:44:46;20.20;99.90
19928;DHT22;10126;50.876;4.470;2023-07-13T06:46:46;20.30;99.90
19928;DHT22;10126;50.876;4.470;2023-07-13T06:48:47;20.80;99.90
19928;DHT22;10126;50.876;4.470;2023-07-13T06:50:49;20.80;99.90
19928;DHT22;10126;50.876;4.470;2023-07-13T06:52:50;21.00;99.90
19928;DHT22;10126;50.876;4.470;2023-07-13T06:54:51;21.10;99.90
19928;DHT22;10126;50.876;4.470;2023-07-13T06:56:51;21.60;99.90
19928;DHT22;10126;50.876;4.470;2023-07-13T06:58:52;22.00;99.90
19928;DHT22;10126;50.876;4.470;2023-07-13T07:00:53;22.60;99.90
19928;DHT22;10126;50.876;4.470;2023-07-13T07:02:55;22.70;99.90
19928;DHT22;10126;50.876;4.470;2023-07-13T07:04:55;22.40;99.90
19928;DHT22;10126;50.876;4.470;2023-07-13T07:06:56;22.00;99.90
19928;DHT22;10126;50.876;4.470;2023-07-13T07:08:57;22.30;99.90
19928;DHT22;10126;50.876;4.470;2023-07-13T07:10:58;22.40;99.90
19928;DHT22;10126;50.876;4.470;2023-07-13T07:12:59;22.40;99.90
19928;DHT22;10126;50.876;4.470;2023-07-13T07:14:59;22.60;99.90
19928;DHT22;10126;50.876;4.470;2023-07-13T07:17:00;22.90;99.90
19928;DHT22;10126;50.876;4.470;2023-07-13T07:19:01;23.20;99.90
19928;DHT22;10126;50.876;4.470;2023-07-13T07:21:02;23.00;99.90
19928;DHT22;10126;50.876;4.470;2023-07-13T07:23:03;22.90;99.90
19928;DHT22;10126;50.876;4.470;2023-07-13T07:25:03;23.10;99.90
19928;DHT22;10126;50.876;4.470;2023-07-13T07:27:04;23.00;99.90
19928;DHT22;10126;50.876;4.470;2023-07-13T07:29:05;23.40;99.90
19928;DHT22;10126;50.876;4.470;2023-07-13T07:31:06;23.80;99.90
19928;DHT22;10126;50.876;4.470;2023-07-13T07:33:06;24.30;99.90
19928;DHT22;10126;50.876;4.470;2023-07-13T07:35:07;24.70;99.90
19928;DHT22;10126;50.876;4.470;2023-07-13T07:37:12;24.40;99.90
19928;DHT22;10126;50.876;4.470;2023-07-13T07:39:13;24.90;99.90
19928;DHT22;10126;50.876;4.470;2023-07-13T07:41:14;26.10;99.90
19928;DHT22;10126;50.876;4.470;2023-07-13T07:43:14;26.10;99.90
19928;DHT22;10126;50.876;4.470;2023-07-13T07:45:15;27.40;99.90
19928;DHT22;10126;50.876;4.470;2023-07-13T07:47:16;26.60;99.90
19928;DHT22;10126;50.876;4.470;2023-07-13T07:49:16;25.90;99.90
19928;DHT22;10126;50.876;4.470;2023-07-13T07:51:17;26.60;99.90
19928;DHT22;10126;50.876;4.470;2023-07-13T07:53:20;26.70;99.90
19928;DHT22;10126;50.876;4.470;2023-07-13T07:55:22;27.10;99.90
19928;DHT22;10126;50.876;4.470;2023-07-13T07:57:23;28.70;99.90
19928;DHT22;10126;50.876;4.470;2023-07-13T07:59:23;29.40;99.90
19928;DHT22;10126;50.876;4.470;2023-07-13T08:01:24;29.80;99.90
19928;DHT22;10126;50.876;4.470;2023-07-13T08:03:25;29.30;99.90
19928;DHT22;10126;50.876;4.470;2023-07-13T08:05:25;28.80;99.90
19928;DHT22;10126;50.876;4.470;2023-07-13T08:07:26;29.60;99.90
19928;DHT22;10126;50.876;4.470;2023-07-13T08:09:27;31.70;99.90
19928;DHT22;10126;50.876;4.470;2023-07-13T08:11:28;30.90;99.90
19928;DHT22;10126;50.876;4.470;2023-07-13T08:13:28;30.60;99.90
19928;DHT22;10126;50.876;4.470;2023-07-13T08:15:29;30.40;99.90
19928;DHT22;10126;50.876;4.470;2023-07-13T08:17:30;30.10;99.90
19928;DHT22;10126;50.876;4.470;2023-07-13T08:19:31;28.80;99.90
19928;DHT22;10126;50.876;4.470;2023-07-13T08:21:32;28.60;99.90
19928;DHT22;10126;50.876;4.470;2023-07-13T08:23:36;30.00;99.90
19928;DHT22;10126;50.876;4.470;2023-07-13T08:25:37;30.00;99.90
19928;DHT22;10126;50.876;4.470;2023-07-13T08:27:37;29.10;99.90
19928;DHT22;10126;50.876;4.470;2023-07-13T08:29:39;27.80;99.90
19928;DHT22;10126;50.876;4.470;2023-07-13T08:31:40;26.90;99.90
19928;DHT22;10126;50.876;4.470;2023-07-13T08:33:40;26.70;99.90
19928;DHT22;10126;50.876;4.470;2023-07-13T08:35:41;27.40;99.90
19928;DHT22;10126;50.876;4.470;2023-07-13T08:37:42;26.90;99.90
19928;DHT22;10126;50.876;4.470;2023-07-13T08:39:43;26.00;99.90
19928;DHT22;10126;50.876;4.470;2023-07-13T08:41:53;26.40;99.90
19928;DHT22;10126;50.876;4.470;2023-07-13T08:43:58;27.00;99.90
19928;DHT22;10126;50.876;4.470;2023-07-13T08:46:19;26.40;99.90
19928;DHT22;10126;50.876;4.470;2023-07-13T08:48:31;27.30;99.90
19928;DHT22;10126;50.876;4.470;2023-07-13T08:50:35;26.50;99.90
19928;DHT22;10126;50.876;4.470;2023-07-13T08:52:42;26.10;99.90
19928;DHT22;10126;50.876;4.470;2023-07-13T08:54:50;27.60;99.90
19928;DHT22;10126;50.876;4.470;2023-07-13T08:56:53;28.10;99.90
19928;DHT22;10126;50.876;4.470;2023-07-13T08:59:11;27.80;99.90
19928;DHT22;10126;50.876;4.470;2023-07-13T09:01:22;29.00;99.90
19928;DHT22;10126;50.876;4.470;2023-07-13T09:03:30;29.90;99.90
19928;DHT22;10126;50.876;4.470;2023-07-13T09:05:38;30.30;99.90
19928;DHT22;10126;50.876;4.470;2023-07-13T09:12:22;31.20;99.90
19928;DHT22;10126;50.876;4.470;2023-07-13T09:14:43;32.00;99.90
19928;DHT22;10126;50.876;4.470;2023-07-13T09:16:46;32.40;99.90
19928;DHT22;10126;50.876;4.470;2023-07-13T09:18:52;33.30;99.90
19928;DHT22;10126;50.876;4.470;2023-07-13T09:20:59;32.70;99.90
19928;DHT22;10126;50.876;4.470;2023-07-13T09:23:03;32.40;99.90
19928;DHT22;10126;50.876;4.470;2023-07-13T09:25:30;31.40;99.90
19928;DHT22;10126;50.876;4.470;2023-07-13T09:27:36;30.40;99.90
19928;DHT22;10126;50.876;4.470;2023-07-13T09:29:45;29.00;99.90
19928;DHT22;10126;50.876;4.470;2023-07-13T09:31:52;27.90;99.90
19928;DHT22;10126;50.876;4.470;2023-07-13T09:33:53;28.00;99.90
19928;DHT22;10126;50.876;4.470;2023-07-13T09:35:55;28.70;99.90
19928;DHT22;10126;50.876;4.470;2023-07-13T09:38:14;28.90;99.90
19928;DHT22;10126;50.876;4.470;2023-07-13T09:40:30;29.00;99.90
19928;DHT22;10126;50.876;4.470;2023-07-13T09:42:36;30.30;99.90
19928;DHT22;10126;50.876;4.470;2023-07-13T09:46:53;30.60;99.90
19928;DHT22;10126;50.876;4.470;2023-07-13T09:48:55;30.20;99.90
19928;DHT22;10126;50.876;4.470;2023-07-13T09:50:57;30.00;99.90
19928;DHT22;10126;50.876;4.470;2023-07-13T09:53:15;30.50;99.90
19928;DHT22;10126;50.876;4.470;2023-07-13T09:57:27;30.40;99.90
19928;DHT22;10126;50.876;4.470;2023-07-13T09:59:34;30.00;99.90
19928;DHT22;10126;50.876;4.470;2023-07-13T10:01:38;29.50;99.90
19928;DHT22;10126;50.876;4.470;2023-07-13T10:03:39;28.50;99.90
19928;DHT22;10126;50.876;4.470;2023-07-13T10:05:43;27.90;99.90
19928;DHT22;10126;50.876;4.470;2023-07-13T10:07:45;28.80;99.90
19928;DHT22;10126;50.876;4.470;2023-07-13T10:09:45;28.80;99.90
19928;DHT22;10126;50.876;4.470;2023-07-13T10:11:46;28.80;99.90
19928;DHT22;10126;50.876;4.470;2023-07-13T10:15:57;28.60;99.90
19928;DHT22;10126;50.876;4.470;2023-07-13T10:17:58;27.80;99.90
19928;DHT22;10126;50.876;4.470;2023-07-13T10:20:04;28.40;99.90
19928;DHT22;10126;50.876;4.470;2023-07-13T10:24:54;30.60;99.90
19928;DHT22;10126;50.876;4.470;2023-07-13T10:27:20;30.80;99.90
19928;DHT22;10126;50.876;4.470;2023-07-13T10:29:28;30.20;99.90
19928;DHT22;10126;50.876;4.470;2023-07-13T10:31:30;30.20;99.90
19928;DHT22;10126;50.876;4.470;2023-07-13T10:33:31;29.50;99.90
19928;DHT22;10126;50.876;4.470;2023-07-13T10:35:33;28.80;99.90
19928;DHT22;10126;50.876;4.470;2023-07-13T10:37:52;28.80;99.90
19928;DHT22;10126;50.876;4.470;2023-07-13T10:39:55;28.30;99.90
19928;DHT22;10126;50.876;4.470;2023-07-13T10:42:03;27.30;99.90
19928;DHT22;10126;50.876;4.470;2023-07-13T10:44:31;26.90;99.90
19928;DHT22;10126;50.876;4.470;2023-07-13T10:46:30;27.00;99.90
19928;DHT22;10126;50.876;4.470;2023-07-13T10:48:32;27.10;99.90
19928;DHT22;10126;50.876;4.470;2023-07-13T10:50:38;26.60;99.90
19928;DHT22;10126;50.876;4.470;2023-07-13T10:52:50;26.20;99.90
19928;DHT22;10126;50.876;4.470;2023-07-13T10:54:51;25.50;99.90
19928;DHT22;10126;50.876;4.470;2023-07-13T11:03:15;25.00;99.90
19928;DHT22;10126;50.876;4.470;2023-07-13T11:05:27;24.70;99.90
19928;DHT22;10126;50.876;4.470;2023-07-13T11:07:54;24.20;99.90
19928;DHT22;10126;50.876;4.470;2023-07-13T11:09:56;23.90;99.90
19928;DHT22;10126;50.876;4.470;2023-07-13T11:12:03;23.90;99.90
19928;DHT22;10126;50.876;4.470;2023-07-13T11:14:27;24.60;99.90
19928;DHT22;10126;50.876;4.470;2023-07-13T11:16:43;25.30;99.90
19928;DHT22;10126;50.876;4.470;2023-07-13T11:19:37;25.50;99.90
19928;DHT22;10126;50.876;4.470;2023-07-13T11:21:14;25.60;99.90
19928;DHT22;10126;50.876;4.470;2023-07-13T11:27:41;25.60;99.90
19928;DHT22;10126;50.876;4.470;2023-07-13T11:29:42;25.60;99.90
19928;DHT22;10126;50.876;4.470;2023-07-13T11:31:59;25.50;99.90
19928;DHT22;10126;50.876;4.470;2023-07-13T11:33:59;25.90;99.90
19928;DHT22;10126;50.876;4.470;2023-07-13T11:36:06;26.30;99.90
19928;DHT22;10126;50.876;4.470;2023-07-13T11:38:19;26.40;99.90
19928;DHT22;10126;50.876;4.470;2023-07-13T11:40:23;26.10;99.90
19928;DHT22;10126;50.876;4.470;2023-07-13T11:42:28;26.40;99.90
19928;DHT22;10126;50.876;4.470;2023-07-13T11:44:30;26.20;99.90
19928;DHT22;10126;50.876;4.470;2023-07-13T11:46:31;25.90;99.90
19928;DHT22;10126;50.876;4.470;2023-07-13T11:48:34;26.00;99.90
19928;DHT22;10126;50.876;4.470;2023-07-13T11:50:35;25.90;99.90
19928;DHT22;10126;50.876;4.470;2023-07-13T11:52:37;25.90;99.90
19928;DHT22;10126;50.876;4.470;2023-07-13T11:54:57;25.90;99.90
19928;DHT22;10126;50.876;4.470;2023-07-13T11:57:02;25.70;99.90
19928;DHT22;10126;50.876;4.470;2023-07-13T11:59:08;25.50;99.90
19928;DHT22;10126;50.876;4.470;2023-07-13T12:01:30;24.50;99.90
19928;DHT22;10126;50.876;4.470;2023-07-13T12:03:33;24.30;99.90
19928;DHT22;10126;50.876;4.470;2023-07-13T12:05:35;24.00;99.90
19928;DHT22;10126;50.876;4.470;2023-07-13T12:07:37;23.60;99.90
19928;DHT22;10126;50.876;4.470;2023-07-13T12:09:38;23.50;99.90
19928;DHT22;10126;50.876;4.470;2023-07-13T12:11:42;23.40;99.90
19928;DHT22;10126;50.876;4.470;2023-07-13T12:13:44;23.40;99.90
19928;DHT22;10126;50.876;4.470;2023-07-13T12:15:46;23.20;99.90
19928;DHT22;10126;50.876;4.470;2023-07-13T12:17:49;23.30;99.90
19928;DHT22;10126;50.876;4.470;2023-07-13T12:19:52;23.20;99.90
19928;DHT22;10126;50.876;4.470;2023-07-13T12:21:55;23.00;99.90
19928;DHT22;10126;50.876;4.470;2023-07-13T12:23:56;23.00;99.90
19928;DHT22;10126;50.876;4.470;2023-07-13T12:25:58;23.00;99.90
19928;DHT22;10126;50.876;4.470;2023-07-13T12:27:59;23.10;99.90
19928;DHT22;10126;50.876;4.470;2023-07-13T12:30:29;23.20;99.90
19928;DHT22;10126;50.876;4.470;2023-07-13T12:32:36;23.30;99.90
19928;DHT22;10126;50.876;4.470;2023-07-13T12:34:57;23.00;99.90
19928;DHT22;10126;50.876;4.470;2023-07-13T12:37:02;23.10;99.90
19928;DHT22;10126;50.876;4.470;2023-07-13T12:41:45;21.90;99.90
19928;DHT22;10126;50.876;4.470;2023-07-13T12:43:46;20.80;99.90
19928;DHT22;10126;50.876;4.470;2023-07-13T12:46:18;20.10;99.90
19928;DHT22;10126;50.876;4.470;2023-07-13T12:48:18;19.80;99.90
19928;DHT22;10126;50.876;4.470;2023-07-13T12:50:22;19.60;99.90
19928;DHT22;10126;50.876;4.470;2023-07-13T12:52:31;19.40;99.90
19928;DHT22;10126;50.876;4.470;2023-07-13T12:54:33;19.30;99.90
19928;DHT22;10126;50.876;4.470;2023-07-13T12:56:33;19.20;99.90
19928;DHT22;10126;50.876;4.470;2023-07-13T12:58:41;19.40;99.90
19928;DHT22;10126;50.876;4.470;2023-07-13T13:00:48;19.50;99.90
19928;DHT22;10126;50.876;4.470;2023-07-13T13:02:50;19.70;99.90
19928;DHT22;10126;50.876;4.470;2023-07-13T13:04:51;20.00;99.90
19928;DHT22;10126;50.876;4.470;2023-07-13T13:07:03;20.10;99.90
19928;DHT22;10126;50.876;4.470;2023-07-13T13:09:11;20.20;99.90
19928;DHT22;10126;50.876;4.470;2023-07-13T13:11:17;20.20;99.90
19928;DHT22;10126;50.876;4.470;2023-07-13T13:13:17;20.30;99.90
19928;DHT22;10126;50.876;4.470;2023-07-13T13:15:18;20.40;99.90
19928;DHT22;10126;50.876;4.470;2023-07-13T13:17:21;20.70;99.90
19928;DHT22;10126;50.876;4.470;2023-07-13T13:19:27;21.00;99.90
19928;DHT22;10126;50.876;4.470;2023-07-13T13:21:28;21.00;99.90
19928;DHT22;10126;50.876;4.470;2023-07-13T13:23:29;20.90;99.90
19928;DHT22;10126;50.876;4.470;2023-07-13T13:25:29;20.90;99.90